createdAt,value
2023-05-21T00:01:30.189Z,74.60
2023-05-21T00:04:02.435Z,74.90
2023-05-21T00:06:36.232Z,75.20
2023-05-21T00:09:13.095Z,75.50
2023-05-21T00:11:45.263Z,76.10
2023-05-21T00:14:17.528Z,76.90
2023-05-21T00:16:50.010Z,77.50
2023-05-21T00:19:22.475Z,78.10
2023-05-21T00:21:55.093Z,78.90
2023-05-21T00:24:30.062Z,79.80
2023-05-21T00:27:02.326Z,80.20
2023-05-21T00:29:34.445Z,80.40
2023-05-21T00:32:07.793Z,80.70
2023-05-21T00:34:40.089Z,81.30
2023-05-21T00:37:12.257Z,81.80
2023-05-21T00:39:47.085Z,82.40
2023-05-21T00:42:19.302Z,83.00
2023-05-21T00:44:51.460Z,83.10
2023-05-21T00:47:24.138Z,83.60
2023-05-21T00:49:56.427Z,84.30
2023-05-21T00:52:28.867Z,84.40
2023-05-21T00:55:04.044Z,85.00
2023-05-21T00:57:37.422Z,85.60
2023-05-21T01:00:11.060Z,85.90
2023-05-21T01:02:44.605Z,86.10
2023-05-21T01:05:17.410Z,86.20
2023-05-21T01:07:49.773Z,86.20
2023-05-21T01:10:25.403Z,86.40
2023-05-21T01:12:59.244Z,86.60
2023-05-21T01:15:31.539Z,86.80
2023-05-21T01:18:04.081Z,86.90
2023-05-21T01:20:37.826Z,87.10
2023-05-21T01:23:12.664Z,87.20
2023-05-21T01:25:44.998Z,87.30
2023-05-21T01:28:17.177Z,87.40
2023-05-21T01:30:49.569Z,87.40
2023-05-21T01:33:29.904Z,87.60
2023-05-21T01:36:08.868Z,88.10
2023-05-21T01:38:49.540Z,88.70
2023-05-21T01:41:22.684Z,89.10
2023-05-21T01:43:57.256Z,89.50
2023-05-21T01:46:31.084Z,89.70
2023-05-21T01:49:04.474Z,89.90
2023-05-21T01:51:37.081Z,90.10
2023-05-21T01:54:11.805Z,90.20
2023-05-21T01:56:43.936Z,90.40
2023-05-21T01:59:17.517Z,90.60
2023-05-21T02:01:49.811Z,90.80
2023-05-21T02:04:22.006Z,91.00
2023-05-21T02:06:55.034Z,91.00
2023-05-21T02:09:29.762Z,91.10
2023-05-21T02:12:02.517Z,91.00
2023-05-21T02:14:34.727Z,91.10
2023-05-21T02:17:08.264Z,91.10
2023-05-21T02:19:40.397Z,91.10
2023-05-21T02:22:12.577Z,91.20
2023-05-21T02:24:47.365Z,91.40
2023-05-21T02:27:19.536Z,91.40
2023-05-21T02:29:51.664Z,91.50
2023-05-21T02:32:24.029Z,91.60
2023-05-21T02:34:56.202Z,91.70
2023-05-21T02:37:28.540Z,91.90
2023-05-21T02:40:08.081Z,92.20
2023-05-21T02:42:41.603Z,92.40
2023-05-21T02:45:13.851Z,92.50
2023-05-21T02:47:45.992Z,92.60
2023-05-21T02:50:18.231Z,92.70
2023-05-21T02:52:50.739Z,92.80
2023-05-21T02:55:25.663Z,92.90
2023-05-21T02:57:57.838Z,93.10
2023-05-21T03:00:30.084Z,93.20
2023-05-21T03:03:02.305Z,93.40
2023-05-21T03:05:34.610Z,93.60
2023-05-21T03:08:06.846Z,93.70
2023-05-21T03:10:41.584Z,93.80
2023-05-21T03:13:13.782Z,93.80
2023-05-21T03:15:46.737Z,93.90
2023-05-21T03:18:18.877Z,93.90
2023-05-21T03:20:50.993Z,93.90
2023-05-21T03:23:23.116Z,94.00
2023-05-21T03:25:58.077Z,94.10
2023-05-21T03:28:30.261Z,94.20
2023-05-21T03:31:02.628Z,94.30
2023-05-21T03:33:34.737Z,94.40
2023-05-21T03:36:07.415Z,94.50
2023-05-21T03:38:39.556Z,94.60
2023-05-21T03:41:14.251Z,94.70
2023-05-21T03:43:46.340Z,94.80
2023-05-21T03:46:18.705Z,94.90
2023-05-21T03:48:50.949Z,95.10
2023-05-21T03:51:23.141Z,95.10
2023-05-21T03:53:55.270Z,95.20
2023-05-21T03:56:30.161Z,95.20
2023-05-21T03:59:02.525Z,95.30
2023-05-21T04:01:35.115Z,95.40
2023-05-21T04:04:07.376Z,95.50
2023-05-21T04:06:42.463Z,95.60
2023-05-21T04:09:14.689Z,95.70
2023-05-21T04:11:49.447Z,95.80
2023-05-21T04:14:22.608Z,95.90
2023-05-21T04:16:54.748Z,95.90
2023-05-21T04:19:26.991Z,96.00
2023-05-21T04:21:59.330Z,96.00
2023-05-21T04:24:31.711Z,96.00
2023-05-21T04:27:07.122Z,96.20
2023-05-21T04:29:42.851Z,96.20
2023-05-21T04:32:15.429Z,96.30
2023-05-21T04:34:47.593Z,96.50
2023-05-21T04:37:19.717Z,96.60
2023-05-21T04:39:51.896Z,96.60
2023-05-21T04:42:26.564Z,96.70
2023-05-21T04:44:59.655Z,96.70
2023-05-21T04:47:35.982Z,96.80
2023-05-21T04:50:09.376Z,96.80
2023-05-21T04:52:42.091Z,96.80
2023-05-21T04:55:14.205Z,96.90
2023-05-21T04:57:48.966Z,96.90
2023-05-21T05:00:22.776Z,96.80
2023-05-21T05:02:54.965Z,96.90
2023-05-21T05:05:27.359Z,96.90
2023-05-21T05:07:59.605Z,96.90
2023-05-21T05:10:31.726Z,97.00
2023-05-21T05:13:06.980Z,96.90
2023-05-21T05:15:39.236Z,97.00
2023-05-21T05:18:12.124Z,97.00
2023-05-21T05:20:44.541Z,97.00
2023-05-21T05:23:16.712Z,97.00
2023-05-21T05:25:48.809Z,97.00
2023-05-21T05:28:23.699Z,97.00
2023-05-21T05:30:55.884Z,96.90
2023-05-21T05:33:28.058Z,96.90
2023-05-21T05:36:00.219Z,97.00
2023-05-21T05:38:32.330Z,97.00
2023-05-21T05:41:04.750Z,97.00
2023-05-21T05:43:39.521Z,97.00
2023-05-21T05:46:11.687Z,97.00
2023-05-21T05:48:43.933Z,97.10
2023-05-21T05:51:17.381Z,97.10
2023-05-21T05:53:49.614Z,97.10
2023-05-21T05:56:21.960Z,97.20
2023-05-21T05:58:56.914Z,97.30
2023-05-21T06:01:29.042Z,97.30
2023-05-21T06:04:01.172Z,97.30
2023-05-21T06:06:34.980Z,97.30
2023-05-21T06:09:07.372Z,97.30
2023-05-21T06:11:39.543Z,97.20
2023-05-21T06:14:14.250Z,97.10
2023-05-21T06:16:46.685Z,97.10
2023-05-21T06:19:19.163Z,97.10
2023-05-21T06:21:51.346Z,97.00
2023-05-21T06:24:23.429Z,97.00
2023-05-21T06:26:55.614Z,96.90
2023-05-21T06:29:30.429Z,96.90
2023-05-21T06:32:02.627Z,96.90
2023-05-21T06:34:34.773Z,96.90
2023-05-21T06:37:06.917Z,96.80
2023-05-21T06:39:39.068Z,96.70
2023-05-21T06:42:11.235Z,96.60
2023-05-21T06:44:45.986Z,96.50
2023-05-21T06:47:18.108Z,96.40
2023-05-21T06:49:50.249Z,96.20
2023-05-21T06:52:22.511Z,96.40
2023-05-21T06:54:54.723Z,96.10
2023-05-21T06:57:26.866Z,96.10
2023-05-21T07:00:01.947Z,95.90
2023-05-21T07:02:36.796Z,95.70
2023-05-21T07:05:09.897Z,95.40
2023-05-21T07:07:42.036Z,95.10
2023-05-21T07:10:14.165Z,94.90
2023-05-21T07:12:46.317Z,94.80
2023-05-21T07:15:21.298Z,94.60
2023-05-21T07:17:53.506Z,94.50
2023-05-21T07:20:25.773Z,94.20
2023-05-21T07:22:58.330Z,93.90
2023-05-21T07:25:30.877Z,93.60
2023-05-21T07:28:04.551Z,93.20
2023-05-21T07:30:40.818Z,92.80
2023-05-21T07:33:13.024Z,92.70
2023-05-21T07:35:45.159Z,92.30
2023-05-21T07:38:17.850Z,91.90
2023-05-21T07:40:50.014Z,91.50
2023-05-21T07:43:22.186Z,91.20
2023-05-21T07:45:57.018Z,90.60
2023-05-21T07:48:29.241Z,90.20
2023-05-21T07:51:01.594Z,90.00
2023-05-21T07:53:33.800Z,89.20
2023-05-21T07:56:07.037Z,89.00
2023-05-21T07:58:40.694Z,88.70
2023-05-21T08:01:15.673Z,88.20
2023-05-21T08:03:47.879Z,87.50
2023-05-21T08:06:20.250Z,87.10
2023-05-21T08:08:52.555Z,86.40
2023-05-21T08:11:24.837Z,85.70
2023-05-21T08:13:56.972Z,85.40
2023-05-21T08:16:31.940Z,85.10
2023-05-21T08:19:04.398Z,85.10
2023-05-21T08:21:36.992Z,84.90
2023-05-21T08:24:09.162Z,84.40
2023-05-21T08:26:41.359Z,84.20
2023-05-21T08:29:13.511Z,84.10
2023-05-21T08:31:48.319Z,84.20
2023-05-21T08:34:20.461Z,84.20
2023-05-21T08:36:54.032Z,83.60
2023-05-21T08:39:26.196Z,83.20
2023-05-21T08:42:04.773Z,82.70
2023-05-21T08:44:42.275Z,82.00
2023-05-21T08:47:19.043Z,81.70
2023-05-21T08:49:52.404Z,81.60
2023-05-21T08:52:26.562Z,81.60
2023-05-21T08:54:59.851Z,81.20
2023-05-21T08:57:32.500Z,81.00
2023-05-21T09:00:07.435Z,80.50
2023-05-21T09:02:44.623Z,80.10
2023-05-21T09:05:17.615Z,80.00
2023-05-21T09:08:01.132Z,79.40
2023-05-21T09:10:37.272Z,79.20
2023-05-21T09:13:10.646Z,79.00
2023-05-21T09:15:42.892Z,78.80
2023-05-21T09:18:17.788Z,78.90
2023-05-21T09:20:50.014Z,78.70
2023-05-21T09:23:22.216Z,78.00
2023-05-21T09:25:54.516Z,77.40
2023-05-21T09:28:26.851Z,76.70
2023-05-21T09:31:04.068Z,76.70
2023-05-21T09:33:45.482Z,75.20
2023-05-21T09:36:20.328Z,75.50
2023-05-21T09:38:52.886Z,75.10
2023-05-21T09:41:33.834Z,75.00
2023-05-21T09:44:06.239Z,72.30
2023-05-21T09:46:39.890Z,72.30
2023-05-21T09:49:28.086Z,71.70
2023-05-21T09:52:00.585Z,71.30
2023-05-21T09:54:34.323Z,70.90
2023-05-21T09:57:06.829Z,70.70
2023-05-21T09:59:39.464Z,70.10
2023-05-21T10:02:20.505Z,69.90
2023-05-21T10:04:57.341Z,69.90
2023-05-21T10:07:32.984Z,69.20
2023-05-21T10:10:08.738Z,69.00
2023-05-21T10:12:44.106Z,68.90
2023-05-21T10:15:17.548Z,68.90
2023-05-21T10:17:50.187Z,68.70
2023-05-21T10:20:28.044Z,68.30
2023-05-21T10:23:04.995Z,68.00
2023-05-21T10:25:37.742Z,68.00
2023-05-21T10:28:10.089Z,67.40
2023-05-21T10:30:42.826Z,66.90
2023-05-21T10:33:17.012Z,66.90
2023-05-21T10:35:53.460Z,66.60
2023-05-21T10:38:25.898Z,66.50
2023-05-21T10:40:58.719Z,66.00
2023-05-21T10:43:47.866Z,66.10
2023-05-21T10:46:37.005Z,65.20
2023-05-21T10:49:30.941Z,65.10
2023-05-21T10:55:20.634Z,62.30
2023-05-21T10:58:23.125Z,62.10
2023-05-21T11:00:56.128Z,61.80
2023-05-21T11:03:32.088Z,61.50
2023-05-21T11:06:06.822Z,60.60
2023-05-21T11:08:47.654Z,60.00
2023-05-21T11:11:47.284Z,59.50
2023-05-21T11:14:39.939Z,59.40
2023-05-21T11:17:19.750Z,59.20
2023-05-21T11:19:58.775Z,59.10
2023-05-21T11:22:35.129Z,58.80
2023-05-21T11:25:08.885Z,58.60
2023-05-21T11:27:46.461Z,58.10
2023-05-21T11:30:29.472Z,58.50
2023-05-21T11:33:22.754Z,58.80
2023-05-21T11:35:59.670Z,58.80
2023-05-21T11:38:32.004Z,58.60
2023-05-21T11:41:04.657Z,58.20
2023-05-21T11:43:44.376Z,57.90
2023-05-21T11:46:17.774Z,57.70
2023-05-21T11:48:54.135Z,57.70
2023-05-21T11:51:26.635Z,57.40
2023-05-21T11:53:59.372Z,57.30
2023-05-21T11:56:32.977Z,56.80
2023-05-21T11:59:16.009Z,56.90
2023-05-21T12:01:49.357Z,56.50
2023-05-21T12:04:21.537Z,55.90
2023-05-21T12:06:53.739Z,55.70
2023-05-21T12:09:25.910Z,55.60
2023-05-21T12:11:58.217Z,55.10
2023-05-21T12:14:33.169Z,54.80
2023-05-21T12:17:07.100Z,54.80
2023-05-21T12:19:39.489Z,54.40
2023-05-21T12:22:11.772Z,53.80
2023-05-21T12:24:44.895Z,53.50
2023-05-21T12:27:18.547Z,53.20
2023-05-21T12:29:54.487Z,52.80
2023-05-21T12:32:29.122Z,52.70
2023-05-21T12:35:01.454Z,52.60
2023-05-21T12:37:35.894Z,52.30
2023-05-21T12:40:10.143Z,52.40
2023-05-21T12:42:44.762Z,51.40
2023-05-21T12:45:21.210Z,51.40
2023-05-21T12:47:56.583Z,51.20
2023-05-21T12:50:28.936Z,50.50
2023-05-21T12:53:01.199Z,50.00
2023-05-21T12:55:33.557Z,49.70
2023-05-21T12:58:08.621Z,49.30
2023-05-21T13:00:45.692Z,48.70
2023-05-21T13:03:18.269Z,48.10
2023-05-21T13:06:00.595Z,47.70
2023-05-21T13:08:34.716Z,47.50
2023-05-21T13:13:39.370Z,46.90
2023-05-21T13:16:14.198Z,47.40
2023-05-21T13:18:46.452Z,47.30
2023-05-21T13:21:18.606Z,47.20
2023-05-21T13:23:50.877Z,46.20
2023-05-21T13:26:26.065Z,46.20
2023-05-21T13:28:58.324Z,46.30
2023-05-21T13:31:33.094Z,46.40
2023-05-21T13:34:05.780Z,46.30
2023-05-21T13:36:38.077Z,45.90
2023-05-21T13:39:10.239Z,46.10
2023-05-21T13:41:44.062Z,46.40
2023-05-21T13:44:16.208Z,46.50
2023-05-21T13:47:01.919Z,46.40
2023-05-21T13:49:34.360Z,45.80
2023-05-21T13:52:09.240Z,45.50
2023-05-21T13:54:42.555Z,45.70
2023-05-21T13:57:15.110Z,45.10
2023-05-21T13:59:47.435Z,44.50
2023-05-21T14:02:22.318Z,44.40
2023-05-21T14:04:54.650Z,44.60
2023-05-21T14:07:27.126Z,44.80
2023-05-21T14:09:59.272Z,44.60
2023-05-21T14:12:31.446Z,44.10
2023-05-21T14:15:04.035Z,44.10
2023-05-21T14:17:40.698Z,44.20
2023-05-21T14:20:13.632Z,44.40
2023-05-21T14:22:45.818Z,44.60
2023-05-21T14:25:17.949Z,45.10
2023-05-21T14:27:50.081Z,45.20
2023-05-21T14:30:22.389Z,45.00
2023-05-21T14:32:58.057Z,44.60
2023-05-21T14:35:30.331Z,44.30
2023-05-21T14:38:02.500Z,44.40
2023-05-21T14:40:34.619Z,44.30
2023-05-21T14:43:06.784Z,44.40
2023-05-21T14:45:39.125Z,44.60
2023-05-21T14:48:13.940Z,44.60
2023-05-21T14:50:46.094Z,44.90
2023-05-21T14:53:19.076Z,45.20
2023-05-21T14:55:51.216Z,45.30
2023-05-21T14:58:23.290Z,45.80
2023-05-21T15:00:55.455Z,45.90
2023-05-21T15:03:30.268Z,45.60
2023-05-21T15:06:02.501Z,45.50
2023-05-21T15:08:34.661Z,45.90
2023-05-21T15:11:07.908Z,46.10
2023-05-21T15:13:40.097Z,46.10
2023-05-21T15:16:12.291Z,46.60
2023-05-21T15:18:47.119Z,46.70
2023-05-21T15:21:19.928Z,46.50
2023-05-21T15:23:52.158Z,46.20
2023-05-21T15:26:25.707Z,45.90
2023-05-21T15:28:57.850Z,46.10
2023-05-21T15:31:31.653Z,46.30
2023-05-21T15:34:06.412Z,46.20
2023-05-21T15:36:38.502Z,45.90
2023-05-21T15:39:10.719Z,45.80
2023-05-21T15:41:44.215Z,45.90
2023-05-21T15:44:16.491Z,46.10
2023-05-21T15:46:50.143Z,46.20
2023-05-21T15:49:24.951Z,46.40
2023-05-21T15:51:58.227Z,46.50
2023-05-21T15:54:30.907Z,46.60
2023-05-21T15:57:03.069Z,46.80
2023-05-21T15:59:35.191Z,47.10
2023-05-21T16:02:07.868Z,47.20
2023-05-21T16:04:42.620Z,47.40
2023-05-21T16:07:15.027Z,47.90
2023-05-21T16:09:47.266Z,48.00
2023-05-21T16:12:19.465Z,48.00
2023-05-21T16:14:51.688Z,48.10
2023-05-21T16:17:24.187Z,48.20
2023-05-21T16:19:58.884Z,48.30
2023-05-21T16:22:31.003Z,48.60
2023-05-21T16:25:03.294Z,48.60
2023-05-21T16:27:36.491Z,48.80
2023-05-21T16:30:09.627Z,49.00
2023-05-21T16:32:42.020Z,49.30
2023-05-21T16:35:16.782Z,49.50
2023-05-21T16:37:48.941Z,49.80
2023-05-21T16:40:21.182Z,50.10
2023-05-21T16:42:53.428Z,50.40
2023-05-21T16:45:25.668Z,51.00
2023-05-21T16:47:57.815Z,51.10
2023-05-21T16:50:32.657Z,51.40
2023-05-21T16:53:06.364Z,51.90
2023-05-21T16:55:39.056Z,52.00
2023-05-21T16:58:13.647Z,52.40
2023-05-21T17:00:45.904Z,52.80
2023-05-21T17:03:18.185Z,53.00
2023-05-21T17:05:53.248Z,53.30
2023-05-21T17:08:25.688Z,53.50
2023-05-21T17:10:58.791Z,53.80
2023-05-21T17:13:30.985Z,54.30
2023-05-21T17:16:03.341Z,55.00
2023-05-21T17:18:35.492Z,55.40
2023-05-21T17:21:10.297Z,56.00
2023-05-21T17:23:43.096Z,56.70
2023-05-21T17:26:15.410Z,57.50
2023-05-21T17:28:47.601Z,58.00
2023-05-21T17:31:19.883Z,58.70
2023-05-21T17:33:52.044Z,59.80
2023-05-21T17:36:26.761Z,59.60
2023-05-21T17:38:59.160Z,59.70
2023-05-21T17:41:31.281Z,59.80
2023-05-21T17:44:03.444Z,59.90
2023-05-21T17:46:35.779Z,59.70
2023-05-21T17:49:08.477Z,59.60
2023-05-21T17:51:43.666Z,59.50
2023-05-21T17:54:16.305Z,59.70
2023-05-21T17:56:51.337Z,60.10
2023-05-21T17:59:23.795Z,60.50
2023-05-21T18:01:55.994Z,60.60
2023-05-21T18:04:28.181Z,61.10
2023-05-21T18:07:03.014Z,61.70
2023-05-21T18:09:35.118Z,62.00
2023-05-21T18:12:07.896Z,62.10
2023-05-21T18:14:40.015Z,62.20
2023-05-21T18:17:12.202Z,62.40
2023-05-21T18:19:44.343Z,62.80
2023-05-21T18:22:19.082Z,63.20
2023-05-21T18:24:51.522Z,63.70
2023-05-21T18:27:23.734Z,64.10
2023-05-21T18:29:55.942Z,64.40
2023-05-21T18:32:28.273Z,64.70
2023-05-21T18:35:00.481Z,65.10
2023-05-21T18:37:35.253Z,65.40
2023-05-21T18:40:08.619Z,65.70
2023-05-21T18:42:40.840Z,66.00
2023-05-21T18:45:14.002Z,66.40
2023-05-21T18:47:46.328Z,66.70
2023-05-21T18:50:19.714Z,67.10
2023-05-21T18:52:56.265Z,67.20
2023-05-21T18:55:28.429Z,67.30
2023-05-21T18:58:00.789Z,67.30
2023-05-21T19:00:34.358Z,67.40
2023-05-21T19:03:06.612Z,67.40
2023-05-21T19:05:38.917Z,67.60
2023-05-21T19:08:13.682Z,67.70
2023-05-21T19:10:45.850Z,67.90
2023-05-21T19:13:17.956Z,68.20
2023-05-21T19:15:50.077Z,68.50
2023-05-21T19:18:22.508Z,68.80
2023-05-21T19:20:55.023Z,69.30
2023-05-21T19:23:35.713Z,70.10
2023-05-21T19:26:14.153Z,70.70
2023-05-21T19:28:46.359Z,71.30
2023-05-21T19:31:18.618Z,71.70
2023-05-21T19:33:51.024Z,72.10
2023-05-21T19:36:23.263Z,72.50
2023-05-21T19:38:59.003Z,72.80
2023-05-21T19:41:31.466Z,73.10
2023-05-21T19:44:03.606Z,73.40
2023-05-21T19:46:35.963Z,73.70
2023-05-21T19:49:10.609Z,74.10
2023-05-21T19:51:42.743Z,74.30
2023-05-21T19:54:18.872Z,74.20
2023-05-21T19:56:51.743Z,74.10
2023-05-21T19:59:23.984Z,74.20
2023-05-21T20:01:56.295Z,74.40
2023-05-21T20:04:28.418Z,74.80
2023-05-21T20:07:00.816Z,75.20
2023-05-21T20:09:35.666Z,75.60
2023-05-21T20:12:08.840Z,76.00
2023-05-21T20:14:41.904Z,76.40
2023-05-21T20:17:14.663Z,76.80
2023-05-21T20:19:50.132Z,76.90
2023-05-21T20:22:22.209Z,77.20
2023-05-21T20:24:57.938Z,77.50
2023-05-21T20:27:30.132Z,77.60
2023-05-21T20:30:02.346Z,77.80
2023-05-21T20:32:34.838Z,78.00
2023-05-21T20:35:10.128Z,78.20
2023-05-21T20:37:42.493Z,78.80
2023-05-21T20:40:17.307Z,79.50
2023-05-21T20:42:52.043Z,80.00
2023-05-21T20:45:24.162Z,80.50
2023-05-21T20:47:57.125Z,81.10
2023-05-21T20:50:29.915Z,81.30
2023-05-21T20:53:02.221Z,81.90
2023-05-21T20:55:36.929Z,82.30
2023-05-21T20:58:09.032Z,82.50
2023-05-21T21:00:42.248Z,82.70
2023-05-21T21:03:17.929Z,82.80
2023-05-21T21:05:50.204Z,83.20
2023-05-21T21:08:22.297Z,83.50
2023-05-21T21:10:57.178Z,84.00
2023-05-21T21:13:29.288Z,84.70
2023-05-21T21:16:01.465Z,85.50
2023-05-21T21:18:33.665Z,85.80
2023-05-21T21:21:06.478Z,86.50
2023-05-21T21:23:38.795Z,86.90
2023-05-21T21:26:13.612Z,87.30
2023-05-21T21:28:46.681Z,87.70
2023-05-21T21:31:18.999Z,88.00
2023-05-21T21:33:51.146Z,88.50
2023-05-21T21:36:23.376Z,88.90
2023-05-21T21:38:55.979Z,89.40
2023-05-21T21:41:30.694Z,90.10
2023-05-21T21:44:02.900Z,90.40
2023-05-21T21:46:35.090Z,90.60
2023-05-21T21:49:07.170Z,90.70
2023-05-21T21:51:39.722Z,90.60
2023-05-21T21:54:11.962Z,90.60
2023-05-21T21:56:46.796Z,90.70
2023-05-21T21:59:18.878Z,90.80
2023-05-21T22:01:51.125Z,90.70
2023-05-21T22:04:23.299Z,90.60
2023-05-21T22:06:55.421Z,90.50
2023-05-21T22:09:27.576Z,90.40
2023-05-21T22:12:07.784Z,90.40
2023-05-21T22:14:40.080Z,90.80
2023-05-21T22:17:12.258Z,91.00
2023-05-21T22:19:44.400Z,91.30
2023-05-21T22:22:16.566Z,91.40
2023-05-21T22:24:48.690Z,91.60
2023-05-21T22:27:23.453Z,91.70
2023-05-21T22:29:55.584Z,91.80
2023-05-21T22:32:27.672Z,92.00
2023-05-21T22:34:59.863Z,92.10
2023-05-21T22:37:32.031Z,92.10
2023-05-21T22:40:06.737Z,92.00
2023-05-21T22:42:41.761Z,92.30
2023-05-21T22:45:14.044Z,92.40
2023-05-21T22:47:46.221Z,92.50
2023-05-21T22:50:18.622Z,92.60
2023-05-21T22:52:50.996Z,92.80
2023-05-21T22:55:23.138Z,92.60
2023-05-21T22:57:57.841Z,92.70
2023-05-21T23:00:30.286Z,92.70
2023-05-21T23:03:02.447Z,92.80
2023-05-21T23:05:34.711Z,93.10
2023-05-21T23:08:06.947Z,92.90
2023-05-21T23:10:39.400Z,93.00
2023-05-21T23:13:14.341Z,93.00
2023-05-21T23:15:48.674Z,93.20
2023-05-21T23:18:21.113Z,93.40
2023-05-21T23:20:53.336Z,93.50
2023-05-21T23:23:25.740Z,93.70
2023-05-21T23:25:59.119Z,93.90
2023-05-21T23:28:34.044Z,94.00
2023-05-21T23:31:07.631Z,94.50
2023-05-21T23:33:39.782Z,94.40
2023-05-21T23:36:12.081Z,94.50
2023-05-21T23:38:44.269Z,94.60
2023-05-21T23:41:16.614Z,94.80
2023-05-21T23:43:51.354Z,95.00
2023-05-21T23:46:23.659Z,95.40
2023-05-21T23:48:55.918Z,95.90
2023-05-21T23:51:28.134Z,96.20
2023-05-21T23:54:00.434Z,96.20
2023-05-21T23:56:32.551Z,96.20
2023-05-21T23:59:07.521Z,96.20
